createdAt,value
2023-04-03T05:57:10.716Z,58.69
2023-04-03T05:59:42.660Z,57.95
2023-04-03T06:02:21.221Z,57.64
2023-04-03T06:04:53.598Z,57.29
2023-04-03T06:07:31.231Z,56.93
2023-04-03T06:10:10.219Z,56.33
2023-04-03T06:12:41.989Z,56.62
2023-04-03T06:15:18.675Z,54.80
2023-04-03T06:17:55.717Z,52.51
2023-04-03T06:20:32.473Z,51.25
2023-04-03T06:23:11.692Z,52.16
2023-04-03T06:25:48.415Z,53.23
2023-04-03T06:28:27.380Z,52.79
2023-04-03T06:31:05.488Z,52.45
2023-04-03T06:33:42.782Z,51.65
2023-04-03T06:36:21.872Z,52.87
2023-04-03T06:38:52.602Z,52.99
2023-04-03T06:41:29.051Z,53.17
2023-04-03T06:44:06.782Z,52.41
2023-04-03T06:46:43.984Z,51.95
2023-04-03T06:49:20.785Z,50.91
2023-04-03T06:51:58.552Z,50.08
2023-04-03T06:54:37.247Z,49.41
2023-04-03T06:57:14.361Z,49.76
2023-04-03T06:59:52.104Z,49.76
2023-04-03T07:02:29.681Z,49.40
2023-04-03T07:05:04.744Z,48.52
2023-04-03T07:07:44.819Z,47.51
2023-04-03T07:10:24.226Z,46.50
2023-04-03T07:13:02.940Z,45.83
2023-04-03T07:15:40.802Z,44.91
2023-04-03T07:18:18.641Z,44.81
2023-04-03T07:20:51.935Z,44.57
2023-04-03T07:23:29.014Z,45.34
2023-04-03T07:26:07.421Z,45.02
2023-04-03T07:28:45.594Z,44.48
2023-04-03T07:31:23.814Z,43.70
2023-04-03T07:34:01.810Z,43.25
2023-04-03T07:36:39.837Z,42.18
2023-04-03T07:39:17.163Z,41.79
2023-04-03T07:41:53.177Z,41.49
2023-04-03T07:44:29.939Z,40.82
2023-04-03T07:47:07.385Z,40.06
2023-04-03T07:49:45.444Z,39.17
2023-04-03T07:52:23.460Z,39.43
2023-04-03T07:55:02.144Z,37.60
2023-04-03T07:57:41.028Z,38.77
2023-04-03T08:00:19.350Z,39.73
2023-04-03T08:02:58.284Z,38.92
2023-04-03T08:05:39.907Z,37.54
2023-04-03T08:08:22.700Z,37.45
2023-04-03T08:11:01.402Z,37.50
2023-04-03T08:13:39.422Z,36.28
2023-04-03T08:16:24.564Z,36.40
2023-04-03T08:19:03.878Z,37.11
2023-04-03T08:21:48.443Z,37.09
2023-04-03T08:24:26.976Z,37.90
2023-04-03T08:27:05.436Z,37.96
2023-04-03T08:29:43.032Z,37.99
2023-04-03T08:32:21.296Z,37.57
2023-04-03T08:34:53.351Z,37.55
2023-04-03T08:37:31.008Z,38.66
2023-04-03T08:40:15.577Z,38.10
2023-04-03T08:43:10.934Z,37.88
2023-04-03T08:46:00.994Z,37.40
2023-04-03T08:48:46.861Z,37.45
2023-04-03T08:51:26.700Z,37.75
2023-04-03T08:54:19.770Z,38.57
2023-04-03T08:56:52.182Z,38.89
2023-04-03T08:59:39.600Z,38.38
2023-04-03T09:02:55.336Z,37.11
2023-04-03T09:05:51.455Z,37.66
2023-04-03T09:08:39.700Z,37.35
2023-04-03T09:11:29.297Z,35.91
2023-04-03T09:14:46.499Z,34.97
2023-04-03T09:18:07.959Z,34.64
2023-04-03T09:21:31.408Z,34.77
2023-04-03T09:24:12.188Z,35.10
2023-04-03T09:27:13.564Z,35.78
2023-04-03T09:29:55.085Z,36.45
2023-04-03T09:32:38.567Z,35.40
2023-04-03T09:35:47.231Z,34.84
2023-04-03T09:38:26.405Z,34.78
2023-04-03T09:41:19.493Z,35.30
2023-04-03T09:44:01.648Z,35.19
2023-04-03T09:46:41.065Z,34.65
2023-04-03T09:49:21.291Z,35.15
2023-04-03T09:52:00.578Z,35.65
2023-04-03T09:54:42.598Z,36.20
2023-04-03T09:57:21.258Z,35.22
2023-04-03T10:00:07.401Z,35.89
2023-04-03T10:02:47.023Z,36.40
2023-04-03T10:05:43.731Z,36.63
2023-04-03T10:08:25.491Z,37.57
2023-04-03T10:11:24.984Z,37.11
2023-04-03T10:14:19.469Z,35.63
2023-04-03T10:17:13.584Z,35.60
2023-04-03T10:20:08.043Z,35.04
2023-04-03T10:23:21.737Z,34.42
2023-04-03T10:26:22.078Z,35.54
2023-04-03T10:29:38.879Z,35.42
2023-04-03T10:32:47.882Z,34.69
2023-04-03T10:35:44.507Z,34.39
2023-04-03T10:38:40.469Z,34.21
2023-04-03T10:41:21.406Z,35.24
2023-04-03T10:44:24.042Z,35.91
2023-04-03T10:47:19.729Z,35.64
2023-04-03T10:50:03.107Z,35.96
2023-04-03T10:53:08.633Z,36.05
2023-04-03T10:56:24.528Z,36.68
2023-04-03T10:59:19.389Z,37.67
2023-04-03T11:02:03.901Z,37.26
2023-04-03T11:04:51.936Z,36.97
2023-04-03T11:07:40.305Z,36.52
2023-04-03T11:10:37.623Z,36.75
2023-04-03T11:13:53.371Z,36.92
2023-04-03T11:16:51.061Z,36.87
2023-04-03T11:19:55.865Z,37.17
2023-04-03T11:22:48.952Z,37.36
2023-04-03T11:25:36.143Z,36.90
2023-04-03T11:28:21.617Z,37.25
2023-04-03T11:31:13.544Z,37.14
2023-04-03T11:34:45.787Z,35.84
2023-04-03T11:37:46.546Z,36.71
2023-04-03T11:40:32.649Z,37.06
2023-04-03T11:43:23.688Z,36.85
2023-04-03T11:46:14.853Z,36.51
2023-04-03T11:48:57.506Z,36.05
2023-04-03T11:51:42.555Z,35.29
2023-04-03T11:54:51.644Z,35.53
2023-04-03T11:58:08.824Z,36.01
2023-04-03T12:00:54.491Z,36.46
2023-04-03T12:03:32.883Z,35.96
2023-04-03T12:06:16.452Z,34.85
2023-04-03T12:08:59.375Z,35.39
2023-04-03T12:11:40.265Z,35.27
2023-04-03T12:14:27.030Z,35.22
2023-04-03T12:17:05.251Z,35.46
2023-04-03T12:19:48.808Z,35.37
2023-04-03T12:22:28.076Z,35.18
2023-04-03T12:25:43.068Z,35.30
2023-04-03T12:28:23.603Z,35.37
2023-04-03T12:31:05.644Z,34.81
2023-04-03T12:34:22.200Z,35.24
2023-04-03T12:37:55.736Z,34.33
2023-04-03T12:40:45.473Z,34.01
2023-04-03T12:44:07.063Z,34.75
2023-04-03T12:46:51.316Z,35.36
2023-04-03T12:49:48.392Z,35.08
2023-04-03T12:52:53.835Z,35.54
2023-04-03T12:55:33.070Z,35.54
2023-04-03T12:58:32.105Z,35.55
2023-04-03T13:01:23.451Z,35.16
2023-04-03T13:04:03.499Z,35.58
2023-04-03T13:06:47.868Z,35.49
2023-04-03T13:09:29.578Z,35.10
2023-04-03T13:12:18.825Z,34.70
2023-04-03T13:15:06.047Z,34.15
2023-04-03T13:17:47.222Z,34.58
2023-04-03T13:20:38.403Z,35.10
2023-04-03T13:23:22.377Z,35.37
2023-04-03T13:26:05.463Z,35.54
2023-04-03T13:28:45.328Z,36.01
2023-04-03T13:31:34.240Z,35.78
2023-04-03T13:34:25.558Z,35.45
2023-04-03T13:37:00.818Z,34.94
2023-04-03T13:39:42.138Z,35.08
2023-04-03T13:42:32.866Z,35.12
2023-04-03T13:45:23.389Z,35.60
2023-04-03T13:48:25.007Z,34.87
2023-04-03T13:51:07.571Z,35.50
2023-04-03T13:53:54.953Z,36.05
2023-04-03T13:56:40.939Z,35.70
2023-04-03T13:59:21.711Z,35.82
2023-04-03T14:02:07.970Z,35.31
2023-04-03T14:04:59.767Z,35.51
2023-04-03T14:07:39.345Z,35.74
2023-04-03T14:10:17.773Z,36.15
2023-04-03T14:12:58.436Z,35.94
2023-04-03T14:15:37.968Z,35.92
2023-04-03T14:18:22.443Z,35.49
2023-04-03T14:20:59.844Z,35.40
2023-04-03T14:23:32.123Z,35.60
2023-04-03T14:26:22.301Z,35.47
2023-04-03T14:28:59.848Z,35.37
2023-04-03T14:31:38.110Z,35.05
2023-04-03T14:34:19.971Z,35.11
2023-04-03T14:36:58.262Z,35.50
2023-04-03T14:39:33.222Z,35.72
2023-04-03T14:42:09.310Z,36.01
2023-04-03T14:44:48.411Z,35.77
2023-04-03T14:47:32.140Z,35.90
2023-04-03T14:50:15.945Z,36.35
2023-04-03T14:52:56.105Z,36.63
2023-04-03T14:55:34.468Z,36.15
2023-04-03T14:58:18.496Z,35.90
2023-04-03T15:00:56.327Z,35.89
2023-04-03T15:03:34.845Z,35.91
2023-04-03T15:06:16.319Z,35.81
2023-04-03T15:08:54.304Z,35.71
2023-04-03T15:11:33.019Z,35.31
2023-04-03T15:14:13.779Z,35.53
2023-04-03T15:16:54.217Z,35.57
2023-04-03T15:19:33.389Z,36.04
2023-04-03T15:22:15.519Z,36.52
2023-04-03T15:24:53.431Z,37.07
2023-04-03T15:27:31.055Z,37.54
2023-04-03T15:30:09.452Z,37.80
2023-04-03T15:32:47.740Z,38.06
2023-04-03T15:35:26.467Z,38.10
2023-04-03T15:38:03.821Z,37.29
2023-04-03T15:40:41.964Z,36.80
2023-04-03T15:43:20.845Z,36.80
2023-04-03T15:46:01.889Z,36.74
2023-04-03T15:48:40.619Z,37.11
2023-04-03T15:51:18.651Z,37.45
2023-04-03T15:53:49.666Z,37.86
2023-04-03T15:56:27.870Z,37.89
2023-04-03T15:59:02.946Z,37.69
2023-04-03T16:01:39.010Z,37.95
2023-04-03T16:04:17.951Z,38.05
2023-04-03T16:06:55.483Z,37.93
2023-04-03T16:09:32.468Z,38.28
2023-04-03T16:12:10.112Z,38.08
2023-04-03T16:14:48.057Z,38.27
2023-04-03T16:17:29.554Z,38.56
2023-04-03T16:20:08.210Z,38.57
2023-04-03T16:22:47.006Z,38.89
2023-04-03T16:25:25.923Z,38.96
2023-04-03T16:28:04.759Z,38.70
2023-04-03T16:30:47.773Z,38.49
2023-04-03T16:33:26.575Z,38.88
2023-04-03T16:36:04.609Z,38.85
2023-04-03T16:38:41.848Z,39.39
2023-04-03T16:41:19.983Z,39.55
2023-04-03T16:43:52.392Z,39.70
2023-04-03T16:46:27.017Z,39.81
2023-04-03T16:49:02.984Z,39.87
2023-04-03T16:51:40.549Z,40.02
2023-04-03T16:54:18.781Z,40.31
2023-04-03T16:56:57.835Z,40.59
2023-04-03T16:59:36.522Z,40.66
2023-04-03T17:02:16.833Z,40.56
2023-04-03T17:04:55.568Z,40.70
2023-04-03T17:07:33.408Z,40.90
2023-04-03T17:10:14.063Z,40.89
2023-04-03T17:12:52.316Z,41.30
2023-04-03T17:15:30.389Z,41.51
2023-04-03T17:18:09.305Z,41.37
2023-04-03T17:20:46.827Z,41.56
2023-04-03T17:23:24.725Z,41.56
2023-04-03T17:26:03.384Z,40.87
2023-04-03T17:28:44.828Z,41.24
2023-04-03T17:31:27.840Z,41.26
2023-04-03T17:34:07.988Z,41.75
2023-04-03T17:36:48.635Z,41.65
2023-04-03T17:39:27.164Z,41.67
2023-04-03T17:42:09.735Z,41.92
2023-04-03T17:44:49.064Z,41.56
2023-04-03T17:47:27.724Z,41.58
2023-04-03T17:50:07.849Z,41.74
2023-04-03T17:52:47.577Z,41.76
2023-04-03T17:55:26.223Z,42.38
2023-04-03T17:58:04.505Z,42.77
2023-04-03T18:00:42.183Z,42.67
2023-04-03T18:03:20.922Z,42.98
2023-04-03T18:05:59.122Z,43.09
2023-04-03T18:08:44.115Z,43.19
2023-04-03T18:11:25.728Z,43.09
2023-04-03T18:14:08.049Z,43.23
2023-04-03T18:16:43.139Z,43.75
2023-04-03T18:19:23.764Z,43.74
2023-04-03T18:22:00.095Z,44.04
2023-04-03T18:24:39.743Z,43.88
2023-04-03T18:27:21.056Z,43.73
2023-04-03T18:30:09.078Z,43.94
2023-04-03T18:32:51.945Z,44.01
2023-04-03T18:35:30.830Z,44.19
2023-04-03T18:38:09.438Z,44.41
2023-04-03T18:40:50.605Z,44.91
2023-04-03T18:43:29.418Z,45.02
2023-04-03T18:46:07.733Z,45.98
2023-04-03T18:48:47.959Z,46.99
2023-04-03T18:51:26.965Z,47.52
2023-04-03T18:54:07.367Z,47.90
2023-04-03T18:56:47.224Z,48.28
2023-04-03T18:59:26.318Z,48.27
2023-04-03T19:02:06.500Z,48.64
2023-04-03T19:04:39.812Z,48.71
2023-04-03T19:07:20.005Z,48.97
2023-04-03T19:09:52.937Z,49.10
2023-04-03T19:12:32.988Z,49.24
2023-04-03T19:15:05.174Z,49.66
2023-04-03T19:17:45.382Z,49.90
2023-04-03T19:20:23.793Z,50.09
2023-04-03T19:23:01.562Z,50.15
2023-04-03T19:25:41.764Z,50.29
2023-04-03T19:28:20.719Z,50.25
2023-04-03T19:30:59.655Z,50.81
2023-04-03T19:33:38.549Z,50.64
2023-04-03T19:36:17.098Z,50.74
2023-04-03T19:38:55.989Z,50.26
2023-04-03T19:41:35.811Z,50.65
2023-04-03T19:44:13.924Z,50.29
2023-04-03T19:46:52.235Z,50.28
2023-04-03T19:49:30.628Z,50.07
2023-04-03T19:52:10.682Z,50.15
2023-04-03T19:54:51.079Z,49.97
2023-04-03T19:57:35.149Z,50.25
2023-04-03T20:00:14.571Z,50.21
2023-04-03T20:02:53.048Z,50.47
2023-04-03T20:05:31.601Z,50.67
2023-04-03T20:08:07.209Z,50.79
2023-04-03T20:10:46.607Z,50.94
2023-04-03T20:13:25.195Z,50.95
2023-04-03T20:16:07.970Z,51.27
2023-04-03T20:18:47.389Z,51.87
2023-04-03T20:21:33.752Z,51.40
2023-04-03T20:24:13.977Z,51.02
2023-04-03T20:26:52.959Z,51.56
2023-04-03T20:29:30.665Z,51.67
2023-04-03T20:32:12.426Z,51.82
2023-04-03T20:35:01.287Z,51.80
2023-04-03T20:37:45.192Z,51.83
2023-04-03T20:40:22.505Z,51.75
2023-04-03T20:43:03.939Z,52.05
2023-04-03T20:45:41.257Z,52.04
2023-04-03T20:48:18.967Z,52.34
2023-04-03T20:50:57.158Z,52.52
2023-04-03T20:53:35.086Z,52.93
2023-04-03T20:56:15.859Z,52.49
2023-04-03T20:58:53.305Z,52.32
2023-04-03T21:01:27.958Z,52.81
2023-04-03T21:04:19.639Z,52.90
2023-04-03T21:07:47.930Z,53.29
2023-04-03T21:11:16.387Z,53.51
2023-04-03T21:14:44.132Z,53.35
2023-04-03T21:17:17.011Z,53.96
2023-04-03T21:19:53.879Z,54.00
2023-04-03T21:22:32.384Z,53.79
2023-04-03T21:25:11.985Z,53.47
2023-04-03T21:27:49.654Z,53.98
2023-04-03T21:30:26.652Z,54.36
2023-04-03T21:33:04.750Z,54.50
2023-04-03T21:35:42.564Z,54.59
2023-04-03T21:38:19.951Z,54.94
2023-04-03T21:41:01.023Z,54.96
2023-04-03T21:43:38.676Z,54.99
2023-04-03T21:46:16.044Z,55.04
2023-04-03T21:48:52.816Z,54.93
2023-04-03T21:51:32.238Z,55.17
2023-04-03T21:54:10.837Z,55.74
2023-04-03T21:56:41.337Z,55.40
2023-04-03T21:59:21.077Z,55.68
2023-04-03T22:01:58.727Z,55.47
2023-04-03T22:04:36.144Z,55.63
2023-04-03T22:07:13.745Z,56.06
2023-04-03T22:09:51.220Z,56.14
2023-04-03T22:12:29.943Z,56.12
2023-04-03T22:15:07.372Z,56.02
2023-04-03T22:17:45.396Z,56.26
2023-04-03T22:20:22.491Z,56.46
2023-04-03T22:22:59.943Z,56.82
2023-04-03T22:25:36.660Z,57.09
2023-04-03T22:28:14.999Z,56.76
2023-04-03T22:30:51.355Z,57.21
2023-04-03T22:33:28.087Z,57.41
2023-04-03T22:36:05.150Z,57.24
2023-04-03T22:38:45.923Z,56.94
2023-04-03T22:41:23.751Z,57.85
2023-04-03T22:44:00.878Z,58.13
2023-04-03T22:46:38.356Z,58.30
2023-04-03T22:49:16.377Z,57.70
2023-04-03T22:51:52.971Z,57.85
2023-04-03T22:54:30.659Z,57.75
2023-04-03T22:57:09.912Z,58.13
2023-04-03T22:59:40.411Z,58.04
2023-04-03T23:02:11.146Z,58.40
2023-04-03T23:04:48.719Z,58.03
2023-04-03T23:07:19.877Z,58.19
2023-04-03T23:09:55.029Z,58.47
2023-04-03T23:12:32.819Z,58.44
2023-04-03T23:15:10.723Z,58.83
2023-04-03T23:17:50.193Z,59.07
2023-04-03T23:20:27.639Z,59.27
2023-04-03T23:23:05.539Z,59.43
2023-04-03T23:25:42.770Z,59.44
2023-04-03T23:28:13.050Z,59.24
2023-04-03T23:30:51.413Z,59.51
2023-04-03T23:33:29.192Z,59.65
2023-04-03T23:36:09.850Z,59.87
2023-04-03T23:38:47.287Z,59.89
2023-04-03T23:41:26.413Z,59.74
2023-04-03T23:44:03.517Z,60.11
2023-04-03T23:46:40.516Z,59.96
2023-04-03T23:49:18.422Z,60.02
2023-04-03T23:51:57.103Z,60.33
2023-04-03T23:54:33.652Z,60.33
2023-04-03T23:57:11.083Z,60.31
2023-04-03T23:59:48.443Z,60.12
